Time;durP1;ratioP1;P1;durP2;ratioP2;P2;SDS_P1;SDS_P2;PMS_P1;PMS_P2;Temp;Humidity;BMP_temperature;BMP_pressure;BME280_temperature;BME280_humidity;BME280_pressure;Samples;Min_cycle;Max_cycle;Signal;HPM_P1;HPM_P2
2023/01/28 00:00:28;;;;;;;12.07;8.00;;;;;;;-145.18;100.00;60484.78;5048935;28;20029;-71
2023/01/28 00:02:53;;;;;;;11.57;7.70;;;;;;;-145.18;100.00;60484.78;5048014;28;20036;-71
2023/01/28 00:05:18;;;;;;;16.10;8.07;;;;;;;-145.18;100.00;60484.78;5046718;28;20036;-72
2023/01/28 00:07:44;;;;;;;10.87;7.40;;;;;;;-145.18;100.00;60484.78;5049677;28;20507;-72
2023/01/28 00:10:10;;;;;;;11.87;6.77;;;;;;;-145.18;100.00;60484.78;5045598;28;20048;-72
2023/01/28 00:12:35;;;;;;;10.40;5.50;;;;;;;-145.18;100.00;60484.78;5046190;28;20043;-72
2023/01/28 00:15:00;;;;;;;8.10;5.67;;;;;;;-145.18;100.00;60484.78;5046031;28;20017;-72
2023/01/28 00:17:26;;;;;;;9.37;6.03;;;;;;;-145.18;100.00;60484.78;5049516;28;20021;-72
2023/01/28 00:19:51;;;;;;;8.47;5.13;;;;;;;-145.18;100.00;60484.78;5049591;28;20066;-71
2023/01/28 00:22:17;;;;;;;8.53;4.87;;;;;;;-145.18;100.00;60484.78;5044101;28;20035;-71
2023/01/28 00:24:42;;;;;;;11.50;6.67;;;;;;;-145.18;100.00;60484.78;5048199;28;20029;-72
2023/01/28 00:27:08;;;;;;;11.23;6.80;;;;;;;-145.18;100.00;60484.78;5046495;28;20032;-71
2023/01/28 00:29:33;;;;;;;10.10;6.70;;;;;;;-145.18;100.00;60484.78;5049211;28;20017;-71
2023/01/28 00:31:58;;;;;;;10.00;6.93;;;;;;;-145.18;100.00;60484.78;5047112;28;20051;-71
2023/01/28 00:34:24;;;;;;;11.27;7.50;;;;;;;-145.18;100.00;60484.78;5048311;28;20021;-72
2023/01/28 00:36:56;;;;;;;14.80;7.47;;;;;;;-145.18;100.00;60484.78;5050168;28;20120;-71
2023/01/28 00:39:24;;;;;;;12.70;8.00;;;;;;;-145.18;100.00;60484.78;5047975;28;20074;-72
2023/01/28 00:41:49;;;;;;;13.37;8.53;;;;;;;-145.18;100.00;60484.78;5050565;28;20029;-71
2023/01/28 00:44:14;;;;;;;12.83;8.43;;;;;;;-145.18;100.00;60484.78;5050714;28;20048;-71
2023/01/28 00:46:40;;;;;;;12.83;8.77;;;;;;;-145.18;100.00;60484.78;5050446;28;20043;-71
2023/01/28 00:49:06;;;;;;;12.27;8.33;;;;;;;-145.18;100.00;60484.78;5049885;28;20107;-72
2023/01/28 00:51:32;;;;;;;12.27;8.13;;;;;;;-145.18;100.00;60484.78;5050612;28;20036;-72
2023/01/28 00:53:57;;;;;;;14.23;7.90;;;;;;;-145.18;100.00;60484.78;5049472;28;20376;-71
2023/01/28 00:56:23;;;;;;;11.77;8.10;;;;;;;-145.18;100.00;60484.78;5048992;28;20040;-72
2023/01/28 00:58:49;;;;;;;14.83;7.87;;;;;;;-145.18;100.00;60484.78;5051240;28;20533;-71
2023/01/28 01:01:18;;;;;;;12.13;6.57;;;;;;;-145.18;100.00;60484.78;5050468;28;20245;-72
2023/01/28 01:03:43;;;;;;;9.67;6.47;;;;;;;-145.18;100.00;60484.78;5050112;28;20044;-71
2023/01/28 01:06:10;;;;;;;12.33;7.00;;;;;;;-145.18;100.00;60484.78;5048497;28;20397;-72
2023/01/28 01:08:38;;;;;;;10.87;6.13;;;;;;;-145.18;100.00;60484.78;5049747;28;20117;-71
2023/01/28 01:11:05;;;;;;;9.50;5.50;;;;;;;-145.18;100.00;60484.78;5050027;28;20495;-72
2023/01/28 01:13:33;;;;;;;9.87;5.50;;;;;;;-145.18;100.00;60484.78;5048819;28;20669;-71
2023/01/28 01:16:04;;;;;;;8.73;5.90;;;;;;;-145.18;100.00;60484.78;5050343;28;20041;-71
2023/01/28 01:18:30;;;;;;;12.43;6.55;;;;;;;-145.18;100.00;60484.78;5049042;28;20523;-71
2023/01/28 01:20:57;;;;;;;11.63;6.33;;;;;;;-145.18;100.00;60484.78;5049540;28;20043;-71
2023/01/28 01:23:27;;;;;;;10.77;6.03;;;;;;;-145.18;100.00;60484.78;5050978;28;20028;-71
2023/01/28 01:25:53;;;;;;;8.80;6.03;;;;;;;-145.18;100.00;60484.78;5050657;28;20091;-71
2023/01/28 01:28:19;;;;;;;9.63;6.03;;;;;;;-145.18;100.00;60484.78;5049068;28;20063;-71
2023/01/28 01:30:45;;;;;;;9.60;6.20;;;;;;;-145.18;100.00;60484.78;5047830;28;20488;-71
2023/01/28 01:33:11;;;;;;;11.00;5.93;;;;;;;-145.18;100.00;60484.78;5047249;28;20025;-71
2023/01/28 01:35:36;;;;;;;8.77;5.87;;;;;;;-145.18;100.00;60484.78;5049920;28;20468;-72
2023/01/28 01:38:02;;;;;;;8.47;5.77;;;;;;;-145.18;100.00;60484.78;5050184;28;20025;-71
2023/01/28 01:40:28;;;;;;;9.37;5.83;;;;;;;-145.18;100.00;60484.78;5049247;28;20396;-71
2023/01/28 01:42:53;;;;;;;9.53;6.23;;;;;;;-145.18;100.00;60484.78;5050412;28;20371;-71
2023/01/28 01:45:19;;;;;;;11.70;6.20;;;;;;;-145.18;100.00;60484.78;5048865;28;20017;-71
2023/01/28 01:47:53;;;;;;;9.97;6.03;;;;;;;-145.18;100.00;60484.78;5048304;28;20116;-71
2023/01/28 01:50:24;;;;;;;10.07;6.30;;;;;;;-145.18;100.00;60484.78;5048084;28;20155;-71
2023/01/28 01:52:53;;;;;;;9.02;6.05;;;;;;;-145.18;100.00;60484.78;5049228;28;20437;-71
2023/01/28 01:55:22;;;;;;;9.47;5.90;;;;;;;-145.18;100.00;60484.78;5047925;28;20029;-71
2023/01/28 01:57:50;;;;;;;15.67;6.20;;;;;;;-145.18;100.00;60484.78;5049871;28;20114;-72
2023/01/28 02:00:16;;;;;;;11.03;6.03;;;;;;;-145.18;0.00;60484.78;5047164;28;20067;-71
2023/01/28 02:02:46;;;;;;;12.27;5.47;;;;;;;-145.18;100.00;60484.78;5047223;28;20021;-72
2023/01/28 02:05:14;;;;;;;9.37;5.80;;;;;;;-145.18;100.00;60484.78;5073050;22;20040;-69
2023/01/28 02:07:40;;;;;;;9.93;5.70;;;;;;;-145.18;100.00;60484.78;5061217;28;20035;-69
2023/01/28 02:10:07;;;;;;;9.23;5.60;;;;;;;-145.18;100.00;60484.78;5059917;28;20060;-69
2023/01/28 02:12:41;;;;;;;8.20;5.30;;;;;;;-145.18;0.00;60484.78;5067127;28;20028;-69
2023/01/28 02:15:13;;;;;;;8.07;4.93;;;;;;;-145.18;100.00;60484.78;5059847;28;20036;-69
2023/01/28 02:17:40;;;;;;;8.40;5.37;;;;;;;-145.18;100.00;60484.78;5062733;28;20133;-69
2023/01/28 02:20:12;;;;;;;15.37;5.23;;;;;;;-145.18;100.00;60484.78;5066937;28;20032;-69
2023/01/28 02:23:24;;;;;;;10.82;5.60;;;;;;;-145.18;100.00;60484.78;5064910;28;20058;-69
2023/01/28 02:26:14;;;;;;;10.13;5.33;;;;;;;-145.18;100.00;60484.78;4988258;28;20068;-69
2023/01/28 02:29:04;;;;;;;8.33;5.13;;;;;;;-145.18;100.00;60484.78;5062610;28;20048;-69
2023/01/28 02:31:38;;;;;;;9.83;5.50;;;;;;;-145.18;100.00;60484.78;5063012;28;20020;-69
2023/01/28 02:34:09;;;;;;;10.37;5.40;;;;;;;-145.18;100.00;60484.78;5060772;28;20068;-69
2023/01/28 02:36:34;;;;;;;8.23;5.80;;;;;;;-145.18;100.00;60484.78;5059830;28;20078;-70
2023/01/28 02:39:05;;;;;;;11.47;6.47;;;;;;;-145.18;100.00;60484.78;5063729;28;20624;-70
2023/01/28 02:41:42;;;;;;;10.17;6.03;;;;;;;-145.18;100.00;60484.78;5057867;28;20078;-69
2023/01/28 02:44:08;;;;;;;10.50;5.63;;;;;;;-145.18;100.00;60484.78;5063509;28;20028;-69
2023/01/28 02:49:29;;;;;;;7.83;5.80;;;;;;;-145.18;100.00;60484.78;5069210;28;20108;-69
2023/01/28 02:52:13;;;;;;;9.47;5.83;;;;;;;-145.18;100.00;60484.78;5039000;28;20029;-69
2023/01/28 02:54:55;;;;;;;8.57;6.13;;;;;;;-145.18;100.00;60484.78;5070076;28;20387;-69
2023/01/28 02:57:29;;;;;;;17.58;6.03;;;;;;;-145.18;100.00;60484.78;5056957;28;20079;-69
2023/01/28 03:00:06;;;;;;;8.37;5.97;;;;;;;-145.18;100.00;60484.78;5061082;28;20546;-69
2023/01/28 03:02:53;;;;;;;11.93;6.00;;;;;;;-145.18;100.00;60484.78;5058408;28;20033;-68
2023/01/28 03:05:28;;;;;;;9.80;6.30;;;;;;;-145.18;100.00;60484.78;5049801;28;20029;-68
2023/01/28 03:07:54;;;;;;;8.30;5.60;;;;;;;-145.18;100.00;60484.78;5049304;28;20396;-68
2023/01/28 03:10:24;;;;;;;9.43;5.83;;;;;;;-145.18;100.00;60484.78;5049648;28;20028;-68
2023/01/28 03:38:19;;;;;;;11.13;6.73;;;;;;;-145.18;100.00;60484.78;5050048;28;20102;-70
2023/01/28 03:41:01;;;;;;;13.43;6.70;;;;;;;-145.18;100.00;60484.78;5048922;28;20028;-70
2023/01/28 03:43:28;;;;;;;17.48;5.90;;;;;;;-145.18;100.00;60484.78;5046278;28;20040;-70
2023/01/28 03:45:54;;;;;;;13.03;6.60;;;;;;;-145.18;100.00;60484.78;5051856;28;20441;-68
2023/01/28 03:48:24;;;;;;;9.67;6.67;;;;;;;-145.18;100.00;60484.78;5030085;28;20024;-68
2023/01/28 03:50:51;;;;;;;11.40;6.47;;;;;;;-145.18;100.00;60484.78;5046163;28;20361;-68
2023/01/28 03:53:18;;;;;;;12.30;6.70;;;;;;;-145.18;100.00;60484.78;5061453;28;20031;-68
2023/01/28 03:55:46;;;;;;;13.10;6.50;;;;;;;-145.18;100.00;60484.78;5056037;28;20421;-68
2023/01/28 03:58:12;;;;;;;11.83;6.63;;;;;;;-145.18;100.00;60484.78;5050508;28;20037;-68
2023/01/28 04:00:40;;;;;;;11.67;6.47;;;;;;;-145.18;100.00;60484.78;5051485;28;20032;-68
2023/01/28 04:03:14;;;;;;;9.87;6.30;;;;;;;-145.18;100.00;60484.78;5053021;28;20048;-68
2023/01/28 04:05:43;;;;;;;11.20;6.70;;;;;;;-145.18;100.00;60484.78;5048062;28;20013;-68
2023/01/28 04:08:08;;;;;;;11.43;7.33;;;;;;;-145.18;100.00;60484.78;5057823;28;20071;-68
2023/01/28 04:10:33;;;;;;;10.13;6.53;;;;;;;-145.18;100.00;60484.78;5068459;28;20408;-69
2023/01/28 04:12:59;;;;;;;11.23;7.10;;;;;;;-145.18;100.00;60484.78;5048676;28;20031;-68
2023/01/28 04:15:24;;;;;;;11.10;7.30;;;;;;;-145.18;100.00;60484.78;5051921;28;20040;-68
2023/01/28 04:17:49;;;;;;;11.50;7.07;;;;;;;-145.18;100.00;60484.78;5052388;28;20471;-68
2023/01/28 04:20:15;;;;;;;10.10;6.07;;;;;;;-145.18;100.00;60484.78;5057748;28;20165;-68
2023/01/28 04:22:40;;;;;;;13.00;6.80;;;;;;;-145.18;100.00;60484.78;5056524;28;20503;-68
2023/01/28 04:25:06;;;;;;;13.20;7.30;;;;;;;-145.18;100.00;60484.78;5062979;28;20497;-68
2023/01/28 04:27:32;;;;;;;12.50;6.83;;;;;;;-145.18;100.00;60484.78;5055018;28;20029;-68
2023/01/28 04:29:57;;;;;;;11.47;7.40;;;;;;;-145.18;100.00;60484.78;5063595;28;20024;-68
2023/01/28 04:32:22;;;;;;;10.77;6.90;;;;;;;-145.18;100.00;60484.78;5053632;28;20056;-68
2023/01/28 04:34:48;;;;;;;14.43;7.30;;;;;;;-145.18;100.00;60484.78;5055687;28;20498;-68
2023/01/28 04:37:14;;;;;;;11.27;7.47;;;;;;;-145.18;100.00;60484.78;5052262;28;20025;-68
2023/01/28 04:39:39;;;;;;;11.63;6.90;;;;;;;-145.18;100.00;60484.78;5052923;28;20036;-68
2023/01/28 04:42:04;;;;;;;14.20;7.13;;;;;;;-145.18;100.00;60484.78;5051660;28;20028;-68
2023/01/28 04:44:30;;;;;;;13.17;7.37;;;;;;;-145.18;100.00;60484.78;5057432;28;20396;-68
2023/01/28 04:46:55;;;;;;;10.93;6.70;;;;;;;-145.18;100.00;60484.78;5056662;28;20107;-68
2023/01/28 04:49:20;;;;;;;10.43;6.77;;;;;;;-145.18;100.00;60484.78;5056992;28;20029;-68
2023/01/28 04:51:46;;;;;;;10.50;6.93;;;;;;;-145.18;100.00;60484.78;5055395;28;20625;-68
2023/01/28 04:54:11;;;;;;;13.17;7.37;;;;;;;-145.18;100.00;60484.78;5052600;28;20495;-68
2023/01/28 04:56:36;;;;;;;11.33;7.63;;;;;;;-145.18;100.00;60484.78;5050713;28;20023;-68
2023/01/28 04:59:02;;;;;;;13.63;6.97;;;;;;;-145.18;100.00;60484.78;5055436;28;20399;-68
2023/01/28 05:01:27;;;;;;;12.13;7.87;;;;;;;-145.18;100.00;60484.78;5053040;28;20074;-68
2023/01/28 05:03:53;;;;;;;9.87;7.10;;;;;;;-145.18;100.00;60484.78;5053600;28;20032;-68
2023/01/28 05:06:18;;;;;;;13.13;7.13;;;;;;;-145.18;100.00;60484.78;5052655;28;20025;-68
2023/01/28 05:08:45;;;;;;;13.27;7.13;;;;;;;-145.18;100.00;60484.78;5047659;28;20055;-68
2023/01/28 05:11:11;;;;;;;11.03;7.80;;;;;;;-145.18;100.00;60484.78;5051921;28;20033;-68
2023/01/28 05:13:37;;;;;;;13.77;8.60;;;;;;;-145.18;100.00;60484.78;5053104;28;20120;-68
2023/01/28 05:16:02;;;;;;;15.93;9.47;;;;;;;-145.18;100.00;60484.78;5053047;28;20107;-68
2023/01/28 05:18:28;;;;;;;15.10;9.07;;;;;;;-145.18;100.00;60484.78;5052486;28;20468;-68
2023/01/28 05:20:53;;;;;;;14.50;9.30;;;;;;;-145.18;100.00;60484.78;5050889;28;20017;-68
2023/01/28 05:23:19;;;;;;;17.17;9.93;;;;;;;-145.18;100.00;60484.78;5054266;28;20021;-68
2023/01/28 05:25:44;;;;;;;19.03;10.73;;;;;;;-145.18;100.00;60484.78;5052809;28;20021;-68
2023/01/28 05:28:10;;;;;;;16.60;10.13;;;;;;;-145.18;100.00;60484.78;5051356;28;20043;-68
2023/01/28 05:30:37;;;;;;;18.37;11.20;;;;;;;-145.18;100.00;60484.78;5051325;28;20029;-68
2023/01/28 05:33:02;;;;;;;21.70;12.70;;;;;;;-145.18;100.00;60484.78;5055836;28;20044;-68
2023/01/28 05:35:28;;;;;;;22.73;13.40;;;;;;;-145.18;100.00;60484.78;5052954;28;20519;-68
2023/01/28 05:37:53;;;;;;;23.63;14.67;;;;;;;-145.18;100.00;60484.78;5054564;28;20472;-69
2023/01/28 05:40:18;;;;;;;26.10;15.27;;;;;;;-145.18;100.00;60484.78;5047583;28;20095;-68
2023/01/28 05:42:44;;;;;;;25.53;14.83;;;;;;;-145.18;100.00;60484.78;5051558;28;20166;-68
2023/01/28 05:45:09;;;;;;;28.30;15.10;;;;;;;-145.18;100.00;60484.78;5048609;28;20037;-68
2023/01/28 05:47:35;;;;;;;29.83;14.77;;;;;;;-145.18;100.00;60484.78;5052118;28;20108;-68
2023/01/28 05:50:00;;;;;;;25.03;15.47;;;;;;;-145.18;100.00;60484.78;5051243;28;20159;-68
2023/01/28 05:52:26;;;;;;;29.23;15.67;;;;;;;-145.18;100.00;60484.78;5063497;28;20024;-68
2023/01/28 05:54:51;;;;;;;25.97;14.93;;;;;;;-145.18;100.00;60484.78;5057380;28;20769;-68
2023/01/28 05:57:17;;;;;;;25.10;14.07;;;;;;;-145.18;100.00;60484.78;5053117;28;20103;-68
2023/01/28 05:59:42;;;;;;;26.97;15.17;;;;;;;-145.18;100.00;60484.78;5064050;28;20055;-68
2023/01/28 06:02:08;;;;;;;27.50;15.27;;;;;;;-145.18;100.00;60484.78;5051776;28;20033;-68
2023/01/28 06:04:33;;;;;;;26.27;14.63;;;;;;;-145.18;100.00;60484.78;5047196;28;20032;-68
2023/01/28 06:06:58;;;;;;;30.97;15.57;;;;;;;-145.18;100.00;60484.78;5032156;28;20025;-68
2023/01/28 06:09:24;;;;;;;30.17;15.23;;;;;;;-145.18;100.00;60484.78;5052310;28;20423;-68
2023/01/28 06:11:49;;;;;;;32.00;16.67;;;;;;;-145.18;100.00;60484.78;5055134;28;20040;-68
2023/01/28 06:14:15;;;;;;;34.97;17.33;;;;;;;-145.18;100.00;60484.78;5054029;28;20111;-68
2023/01/28 06:16:40;;;;;;;34.90;17.33;;;;;;;-145.18;100.00;60484.78;5050305;28;20074;-68
2023/01/28 06:19:06;;;;;;;34.73;16.97;;;;;;;-145.18;100.00;60484.78;5047788;28;20038;-68
2023/01/28 06:21:31;;;;;;;33.23;17.23;;;;;;;-145.18;100.00;60484.78;5049395;28;20427;-68
2023/01/28 06:23:56;;;;;;;37.57;17.50;;;;;;;-145.18;100.00;60484.78;5051489;28;20021;-68
2023/01/28 06:26:22;;;;;;;33.80;17.20;;;;;;;-145.18;100.00;60484.78;5050722;28;20544;-68
2023/01/28 06:28:47;;;;;;;38.83;17.43;;;;;;;-145.18;100.00;60484.78;5054909;28;20116;-68
2023/01/28 06:31:13;;;;;;;36.93;17.97;;;;;;;-145.18;100.00;60484.78;5048429;28;20020;-68
2023/01/28 06:33:38;;;;;;;35.40;18.37;;;;;;;-145.18;100.00;60484.78;5051900;28;20056;-68
2023/01/28 06:36:05;;;;;;;41.93;21.07;;;;;;;-145.18;100.00;60484.78;5050889;28;20037;-67
2023/01/28 06:38:31;;;;;;;41.07;20.43;;;;;;;-145.18;100.00;60484.78;5054868;28;20075;-68
2023/01/28 06:40:57;;;;;;;45.40;21.43;;;;;;;-145.18;100.00;60484.78;5056814;28;20029;-68
2023/01/28 06:43:26;;;;;;;44.37;21.67;;;;;;;-145.18;100.00;60484.78;5064541;28;20043;-68
2023/01/28 06:45:58;;;;;;;41.33;20.63;;;;;;;-145.18;100.00;60484.78;5054091;28;20032;-68
2023/01/28 06:48:24;;;;;;;40.30;20.90;;;;;;;-145.18;100.00;60484.78;5053139;28;20043;-68
2023/01/28 06:50:50;;;;;;;41.07;20.03;;;;;;;-145.18;100.00;60484.78;5057017;28;20017;-68
2023/01/28 06:53:16;;;;;;;47.30;22.37;;;;;;;-145.18;100.00;60484.78;5053634;28;20033;-68
2023/01/28 06:55:42;;;;;;;43.93;21.77;;;;;;;-145.18;100.00;60484.78;5051242;28;20032;-68
2023/01/28 06:58:07;;;;;;;46.83;22.00;;;;;;;-145.18;100.00;60484.78;5053374;28;20025;-68
2023/01/28 07:00:32;;;;;;;45.33;21.63;;;;;;;-145.18;100.00;60484.78;5047046;28;20021;-68
2023/01/28 07:02:58;;;;;;;51.30;23.17;;;;;;;-145.18;100.00;60484.78;5047388;28;20091;-67
2023/01/28 07:05:23;;;;;;;47.83;23.50;;;;;;;-145.18;100.00;60484.78;5048707;28;20119;-68
2023/01/28 07:07:49;;;;;;;46.67;22.90;;;;;;;-145.18;100.00;60484.78;5053832;28;20032;-68
2023/01/28 07:10:14;;;;;;;49.77;22.20;;;;;;;-145.18;100.00;60484.78;5057557;28;20559;-68
2023/01/28 07:12:40;;;;;;;46.30;21.90;;;;;;;-145.18;100.00;60484.78;5050146;28;20021;-68
2023/01/28 07:15:06;;;;;;;46.43;22.70;;;;;;;-145.18;100.00;60484.78;5048682;28;20048;-68
2023/01/28 07:17:32;;;;;;;46.03;21.60;;;;;;;-145.18;100.00;60484.78;5053500;28;20032;-67
2023/01/28 07:19:57;;;;;;;50.23;22.33;;;;;;;-145.18;100.00;60484.78;5050820;28;20028;-68
2023/01/28 07:22:23;;;;;;;49.40;22.00;;;;;;;-145.18;100.00;60484.78;5053673;28;20032;-67
2023/01/28 07:24:48;;;;;;;51.13;23.23;;;;;;;-145.18;100.00;60484.78;5055481;28;20024;-68
2023/01/28 07:27:14;;;;;;;52.17;21.80;;;;;;;-145.18;100.00;60484.78;5051410;28;20092;-68
2023/01/28 07:29:39;;;;;;;46.27;22.70;;;;;;;-145.18;100.00;60484.78;5049372;28;20028;-68
2023/01/28 07:32:06;;;;;;;50.43;23.63;;;;;;;-145.18;100.00;60484.78;5048354;28;20055;-68
2023/01/28 07:34:32;;;;;;;50.17;22.87;;;;;;;-145.18;100.00;60484.78;5050722;28;20119;-69
2023/01/28 07:36:57;;;;;;;52.20;23.73;;;;;;;-145.18;100.00;60484.78;5055909;28;20274;-68
2023/01/28 07:39:23;;;;;;;52.03;23.33;;;;;;;-145.18;100.00;60484.78;5053273;28;20025;-68
2023/01/28 07:41:48;;;;;;;53.73;24.03;;;;;;;-145.18;100.00;60484.78;5048326;28;20025;-68
2023/01/28 07:44:13;;;;;;;53.73;23.97;;;;;;;-145.18;100.00;60484.78;5050230;28;20500;-68
2023/01/28 07:46:39;;;;;;;59.27;23.90;;;;;;;-145.18;100.00;60484.78;5053809;28;20017;-68
2023/01/28 07:49:04;;;;;;;58.80;25.27;;;;;;;-145.18;100.00;60484.78;5053452;28;20113;-68
2023/01/28 07:51:30;;;;;;;55.23;23.77;;;;;;;-145.18;100.00;60484.78;5054316;28;20025;-68
2023/01/28 07:53:56;;;;;;;60.37;25.97;;;;;;;-145.18;100.00;60484.78;5053562;28;20025;-68
2023/01/28 07:56:21;;;;;;;52.43;24.00;;;;;;;-145.18;100.00;60484.78;5057186;28;20045;-68
2023/01/28 07:58:50;;;;;;;65.37;24.83;;;;;;;-145.18;100.00;60484.78;5055616;28;20833;-68
2023/01/28 08:01:17;;;;;;;53.97;23.77;;;;;;;-145.18;100.00;60484.78;5038675;28;20029;-68
2023/01/28 08:03:42;;;;;;;46.63;22.63;;;;;;;-145.18;100.00;60484.78;5059721;28;20028;-68
2023/01/28 08:06:08;;;;;;;45.20;22.27;;;;;;;-145.18;100.00;60484.78;5065216;28;20602;-68
2023/01/28 08:08:33;;;;;;;45.70;22.07;;;;;;;-145.18;100.00;60484.78;5063471;28;20056;-68
2023/01/28 08:11:05;;;;;;;46.90;22.90;;;;;;;-145.18;100.00;60484.78;5059346;28;20365;-68
2023/01/28 08:13:31;;;;;;;49.50;23.87;;;;;;;-145.18;100.00;60484.78;5054022;28;20025;-69
2023/01/28 08:15:56;;;;;;;50.70;24.43;;;;;;;-145.18;100.00;60484.78;5058232;28;20492;-69
2023/01/28 08:18:21;;;;;;;47.77;22.37;;;;;;;-145.18;100.00;60484.78;5050973;28;20506;-68
2023/01/28 08:20:47;;;;;;;46.37;22.17;;;;;;;-145.18;100.00;60484.78;5049413;28;20082;-69
2023/01/28 08:23:15;;;;;;;43.20;20.87;;;;;;;-145.18;100.00;60484.78;5058188;28;20020;-68
2023/01/28 08:25:41;;;;;;;44.57;22.20;;;;;;;-145.18;100.00;60484.78;5058204;28;20063;-69
2023/01/28 08:28:07;;;;;;;52.53;23.63;;;;;;;-145.18;100.00;60484.78;5057196;28;20040;-69
2023/01/28 08:30:34;;;;;;;49.80;23.53;;;;;;;-145.18;100.00;60484.78;5053597;28;20024;-69
2023/01/28 08:33:00;;;;;;;52.10;23.73;;;;;;;-145.18;100.00;60484.78;5056090;28;20103;-69
2023/01/28 08:35:26;;;;;;;47.93;23.70;;;;;;;-145.18;100.00;60484.78;5055445;28;20583;-69
2023/01/28 08:37:52;;;;;;;47.70;22.53;;;;;;;-145.18;100.00;60484.78;5050553;28;20028;-69
2023/01/28 08:40:18;;;;;;;46.07;22.40;;;;;;;-145.18;100.00;60484.78;5056770;28;20082;-69
2023/01/28 08:42:51;;;;;;;36.20;19.80;;;;;;;-145.18;100.00;60484.78;5044778;28;20024;-69
2023/01/28 08:45:18;;;;;;;34.80;20.03;;;;;;;-145.18;100.00;60484.78;5047671;28;20498;-69
2023/01/28 08:48:01;;;;;;;34.67;19.47;;;;;;;-145.18;100.00;60484.78;5057277;28;20686;-68
2023/01/28 08:50:31;;;;;;;36.43;20.80;;;;;;;-145.18;100.00;60484.78;5053594;28;20040;-68
2023/01/28 08:52:59;;;;;;;38.67;21.60;;;;;;;-145.18;100.00;60484.78;5051802;28;20116;-68
2023/01/28 08:55:25;;;;;;;35.90;20.07;;;;;;;-145.18;100.00;60484.78;5050470;28;20086;-68
2023/01/28 08:57:51;;;;;;;39.70;20.73;;;;;;;-145.18;100.00;60484.78;5050427;28;20110;-68
2023/01/28 09:00:17;;;;;;;37.60;20.97;;;;;;;-145.18;100.00;60484.78;5045066;28;20037;-68
2023/01/28 09:02:42;;;;;;;34.07;18.87;;;;;;;-145.18;100.00;60484.78;5050521;28;20444;-68
2023/01/28 09:05:08;;;;;;;35.80;19.53;;;;;;;-145.18;100.00;60484.78;5051745;28;20071;-68
2023/01/28 09:07:34;;;;;;;34.40;18.77;;;;;;;-145.18;100.00;60484.78;5051394;28;20384;-68
2023/01/28 09:10:00;;;;;;;35.73;19.33;;;;;;;-145.18;100.00;60484.78;5044873;28;20028;-68
2023/01/28 09:12:26;;;;;;;36.23;20.50;;;;;;;-145.18;100.00;60484.78;5050447;28;20044;-68
2023/01/28 09:14:51;;;;;;;36.03;17.77;;;;;;;-145.18;100.00;60484.78;5055009;28;20028;-68
2023/01/28 09:17:17;;;;;;;36.07;19.87;;;;;;;-145.18;100.00;60484.78;5046648;28;20029;-68
2023/01/28 09:19:43;;;;;;;33.13;17.07;;;;;;;-145.18;100.00;60484.78;5049823;28;20028;-68
2023/01/28 09:22:08;;;;;;;34.50;17.23;;;;;;;-145.18;100.00;60484.78;5046118;28;20483;-68
2023/01/28 09:24:34;;;;;;;37.80;17.83;;;;;;;-145.18;100.00;60484.78;5057587;28;20037;-68
2023/01/28 09:26:59;;;;;;;30.53;16.53;;;;;;;-145.18;100.00;60484.78;5050248;28;20485;-68
2023/01/28 09:29:25;;;;;;;30.47;16.60;;;;;;;-145.18;100.00;60484.78;5046648;28;20044;-69
2023/01/28 09:31:50;;;;;;;33.30;17.10;;;;;;;-145.18;100.00;60484.78;5045136;28;20025;-68
2023/01/28 09:34:15;;;;;;;31.53;16.97;;;;;;;-145.18;100.00;60484.78;5054667;28;20393;-69
2023/01/28 09:36:41;;;;;;;25.37;13.20;;;;;;;-145.18;100.00;60484.78;5054633;28;20060;-69
2023/01/28 09:39:07;;;;;;;25.20;15.00;;;;;;;-145.18;100.00;60484.78;5048380;28;20036;-68
2023/01/28 09:42:13;;;;;;;26.07;14.27;;;;;;;-145.18;100.00;60484.78;5049474;28;20032;-68
2023/01/28 09:44:59;;;;;;;25.73;14.63;;;;;;;-145.18;100.00;60484.78;5043157;28;20031;-69
2023/01/28 09:47:32;;;;;;;25.30;13.30;;;;;;;-145.18;100.00;60484.78;5043724;28;20031;-68
2023/01/28 09:50:03;;;;;;;23.07;13.77;;;;;;;-145.18;100.00;60484.78;5052436;28;20476;-69
2023/01/28 09:52:33;;;;;;;24.73;13.77;;;;;;;-145.18;100.00;60484.78;5050319;28;20488;-69
2023/01/28 09:55:07;;;;;;;25.40;15.03;;;;;;;-145.18;100.00;60484.78;5046620;28;20038;-69
2023/01/28 09:57:54;;;;;;;23.47;13.47;;;;;;;-145.18;100.00;60484.78;5048478;28;20024;-69
2023/01/28 10:00:44;;;;;;;26.87;14.87;;;;;;;-145.18;100.00;60484.78;5044345;28;20036;-69
2023/01/28 10:03:54;;;;;;;22.33;12.73;;;;;;;-145.18;100.00;60484.78;5029352;28;20043;-68
2023/01/28 10:06:45;;;;;;;25.27;13.73;;;;;;;-145.18;100.00;60484.78;5000162;28;20025;-69
2023/01/28 10:09:25;;;;;;;24.08;13.05;;;;;;;-145.18;100.00;60484.78;5048600;28;20025;-69
2023/01/28 10:12:03;;;;;;;24.67;12.80;;;;;;;-145.18;100.00;60484.78;5056493;28;20036;-69
2023/01/28 10:14:48;;;;;;;28.03;14.40;;;;;;;-145.18;100.00;60484.78;5046292;28;20027;-69
2023/01/28 10:17:30;;;;;;;26.27;13.40;;;;;;;-145.18;100.00;60484.78;5056024;28;20040;-69
2023/01/28 10:19:59;;;;;;;27.50;13.87;;;;;;;-145.18;100.00;60484.78;5047611;28;20044;-69
2023/01/28 10:22:30;;;;;;;26.27;15.00;;;;;;;-145.18;100.00;60484.78;5056615;28;20029;-69
2023/01/28 10:25:02;;;;;;;28.57;15.53;;;;;;;-145.18;100.00;60484.78;5054418;28;20037;-69
2023/01/28 10:27:30;;;;;;;25.20;12.77;;;;;;;-145.18;100.00;60484.78;5051467;28;20032;-69
2023/01/28 10:29:57;;;;;;;25.10;14.20;;;;;;;-145.18;100.00;60484.78;5051330;28;20112;-69
2023/01/28 10:32:32;;;;;;;23.33;12.27;;;;;;;-145.18;100.00;60484.78;5060734;28;20024;-69
2023/01/28 10:35:00;;;;;;;21.50;11.80;;;;;;;-145.18;100.00;60484.78;5049547;28;20039;-69
2023/01/28 10:37:27;;;;;;;21.90;12.87;;;;;;;-145.18;100.00;60484.78;5047144;28;20037;-69
2023/01/28 10:39:58;;;;;;;27.73;12.83;;;;;;;-145.18;100.00;60484.78;5050402;28;20021;-68
2023/01/28 10:42:37;;;;;;;23.77;13.47;;;;;;;-145.18;100.00;60484.78;5055127;28;20016;-69
2023/01/28 10:45:08;;;;;;;25.93;13.13;;;;;;;-145.18;100.00;60484.78;5046488;28;20271;-69
2023/01/28 10:47:42;;;;;;;23.13;13.43;;;;;;;-145.18;100.00;60484.78;5050367;28;20027;-69
2023/01/28 10:50:17;;;;;;;24.20;12.73;;;;;;;-145.18;100.00;60484.78;5048862;28;20021;-69
2023/01/28 10:53:12;;;;;;;23.20;13.43;;;;;;;-145.18;100.00;60484.78;5048443;28;20074;-69
2023/01/28 10:55:54;;;;;;;22.10;12.93;;;;;;;-145.18;100.00;60484.78;5033333;28;20111;-69
2023/01/28 10:58:24;;;;;;;21.40;12.30;;;;;;;-145.18;100.00;60484.78;5049291;28;20033;-69
2023/01/28 11:00:56;;;;;;;22.63;13.20;;;;;;;-145.18;100.00;60484.78;5047794;28;20046;-69
2023/01/28 11:03:26;;;;;;;22.97;12.30;;;;;;;-145.18;100.00;60484.78;5056182;28;20033;-70
2023/01/28 11:05:53;;;;;;;24.27;13.07;;;;;;;-145.18;100.00;60484.78;5051084;28;20025;-69
2023/01/28 11:08:19;;;;;;;21.10;12.67;;;;;;;-145.18;100.00;60484.78;5047973;28;20021;-69
2023/01/28 11:10:46;;;;;;;21.23;13.20;;;;;;;-145.18;100.00;60484.78;5050937;28;20368;-69
2023/01/28 11:13:18;;;;;;;22.17;12.60;;;;;;;-145.18;100.00;60484.78;5049513;28;20025;-69
2023/01/28 11:15:51;;;;;;;;;;;;;;;-145.18;100.00;60484.78;5055966;28;20472;-69
2023/01/28 11:18:23;;;;;;;21.97;12.37;;;;;;;-145.18;100.00;60484.78;5060089;28;19917;-69
2023/01/28 11:21:02;;;;;;;22.70;12.43;;;;;;;-145.18;100.00;60484.78;5054919;28;20051;-69
2023/01/28 11:23:46;;;;;;;22.57;12.90;;;;;;;-145.18;100.00;60484.78;5052895;28;20024;-68
2023/01/28 11:26:18;;;;;;;21.10;12.93;;;;;;;-145.18;100.00;60484.78;5053792;28;20835;-68
2023/01/28 11:28:44;;;;;;;21.13;11.83;;;;;;;-145.18;100.00;60484.78;5051496;28;20032;-68
2023/01/28 11:31:13;;;;;;;19.43;10.40;;;;;;;-145.18;100.00;60484.78;5023666;28;20017;-69
2023/01/28 11:33:46;;;;;;;22.57;12.93;;;;;;;-145.18;100.00;60484.78;5054641;28;20108;-69